Kansas City, Missouri
Traffic Map
Current Weather Conditions
Kansas City, Missouri
Clear
Clear
23°
Feels Like: 23°
Wind Chill: 23° Ceiling: Unl
Heat Index: 23° Visibility: 10mi
Dew Point: 16° Wind: 5mph
Humidity: 66% Direction: 130° (SE)
Pressure: 29.96in Gusts: 0mph
Raw Report DataKMKC 282354Z 13004KT 10SM CLR 23/16 A2996 RMK AO2 SLP138 60007 T02280161 10228 20206 58020
Traffic Incident Summary
Active as of:
Severity:
Category:
InformationThere was an issue retrieving the traffic information for this location. Please try a different location or try again shortly.
Advertisements
Track Severe Weather on mobile